sensor_id;sensor_type;location;lat;lon;timestamp;temperature;humidity
5011;DHT22;2524;54.364;10.072;2023-06-24T00:02:09;18.90;99.90
5011;DHT22;2524;54.364;10.072;2023-06-24T00:04:35;18.70;99.90
5011;DHT22;2524;54.364;10.072;2023-06-24T00:07:00;18.70;99.90
5011;DHT22;2524;54.364;10.072;2023-06-24T00:09:26;18.90;99.90
5011;DHT22;2524;54.364;10.072;2023-06-24T00:11:54;18.70;99.90
5011;DHT22;2524;54.364;10.072;2023-06-24T00:14:21;18.90;99.90
5011;DHT22;2524;54.364;10.072;2023-06-24T00:16:47;18.70;99.90
5011;DHT22;2524;54.364;10.072;2023-06-24T00:19:22;18.70;99.90
5011;DHT22;2524;54.364;10.072;2023-06-24T00:21:49;18.60;99.90
5011;DHT22;2524;54.364;10.072;2023-06-24T00:24:17;18.60;99.90
5011;DHT22;2524;54.364;10.072;2023-06-24T00:26:43;18.60;99.90
5011;DHT22;2524;54.364;10.072;2023-06-24T00:29:08;18.50;99.90
5011;DHT22;2524;54.364;10.072;2023-06-24T00:31:34;18.50;99.90
5011;DHT22;2524;54.364;10.072;2023-06-24T00:33:59;18.50;99.90
5011;DHT22;2524;54.364;10.072;2023-06-24T00:36:25;18.50;99.90
5011;DHT22;2524;54.364;10.072;2023-06-24T00:38:52;18.50;99.90
5011;DHT22;2524;54.364;10.072;2023-06-24T00:41:17;18.50;99.90
5011;DHT22;2524;54.364;10.072;2023-06-24T00:43:44;18.50;99.90
5011;DHT22;2524;54.364;10.072;2023-06-24T00:46:10;18.50;99.90
5011;DHT22;2524;54.364;10.072;2023-06-24T00:48:39;18.50;99.90
5011;DHT22;2524;54.364;10.072;2023-06-24T00:51:04;18.60;99.90
5011;DHT22;2524;54.364;10.072;2023-06-24T00:53:30;18.40;99.90
5011;DHT22;2524;54.364;10.072;2023-06-24T00:55:57;18.40;99.90
5011;DHT22;2524;54.364;10.072;2023-06-24T00:58:29;18.40;99.90
5011;DHT22;2524;54.364;10.072;2023-06-24T01:00:56;18.30;99.90
5011;DHT22;2524;54.364;10.072;2023-06-24T01:03:26;18.30;99.90
5011;DHT22;2524;54.364;10.072;2023-06-24T01:05:54;18.20;99.90
5011;DHT22;2524;54.364;10.072;2023-06-24T01:08:20;18.20;99.90
5011;DHT22;2524;54.364;10.072;2023-06-24T01:10:50;18.20;99.90
5011;DHT22;2524;54.364;10.072;2023-06-24T01:13:16;18.20;99.90
5011;DHT22;2524;54.364;10.072;2023-06-24T01:15:42;18.20;99.90
5011;DHT22;2524;54.364;10.072;2023-06-24T01:18:13;18.10;99.90
5011;DHT22;2524;54.364;10.072;2023-06-24T01:20:55;18.20;99.90
5011;DHT22;2524;54.364;10.072;2023-06-24T01:26:31;18.10;99.90
5011;DHT22;2524;54.364;10.072;2023-06-24T01:32:10;18.10;99.90
5011;DHT22;2524;54.364;10.072;2023-06-24T01:34:36;18.10;99.90
5011;DHT22;2524;54.364;10.072;2023-06-24T01:37:35;18.00;99.90
5011;DHT22;2524;54.364;10.072;2023-06-24T01:40:12;17.90;99.90
5011;DHT22;2524;54.364;10.072;2023-06-24T01:42:42;17.80;99.90
5011;DHT22;2524;54.364;10.072;2023-06-24T01:45:12;17.90;99.90
5011;DHT22;2524;54.364;10.072;2023-06-24T01:47:40;17.80;99.90
5011;DHT22;2524;54.364;10.072;2023-06-24T01:50:10;17.80;99.90
5011;DHT22;2524;54.364;10.072;2023-06-24T01:52:37;17.60;99.90
5011;DHT22;2524;54.364;10.072;2023-06-24T01:55:04;17.80;99.90
5011;DHT22;2524;54.364;10.072;2023-06-24T01:57:33;17.70;99.90
5011;DHT22;2524;54.364;10.072;2023-06-24T02:00:00;17.60;99.90
5011;DHT22;2524;54.364;10.072;2023-06-24T02:02:26;17.60;99.90
5011;DHT22;2524;54.364;10.072;2023-06-24T02:04:53;17.60;99.90
5011;DHT22;2524;54.364;10.072;2023-06-24T02:07:20;17.70;99.90
5011;DHT22;2524;54.364;10.072;2023-06-24T02:09:46;17.60;99.90
5011;DHT22;2524;54.364;10.072;2023-06-24T02:12:12;17.60;99.90
5011;DHT22;2524;54.364;10.072;2023-06-24T02:14:38;17.60;99.90
5011;DHT22;2524;54.364;10.072;2023-06-24T02:17:06;17.70;99.90
5011;DHT22;2524;54.364;10.072;2023-06-24T02:19:33;17.50;99.90
5011;DHT22;2524;54.364;10.072;2023-06-24T02:21:59;17.50;99.90
5011;DHT22;2524;54.364;10.072;2023-06-24T02:24:27;17.60;99.90
5011;DHT22;2524;54.364;10.072;2023-06-24T02:26:55;17.50;99.90
5011;DHT22;2524;54.364;10.072;2023-06-24T02:29:22;17.50;99.90
5011;DHT22;2524;54.364;10.072;2023-06-24T02:31:48;17.40;99.90
5011;DHT22;2524;54.364;10.072;2023-06-24T02:34:15;17.40;99.90
5011;DHT22;2524;54.364;10.072;2023-06-24T02:36:41;17.40;99.90
5011;DHT22;2524;54.364;10.072;2023-06-24T02:39:06;17.30;99.90
5011;DHT22;2524;54.364;10.072;2023-06-24T02:41:32;17.40;99.90
5011;DHT22;2524;54.364;10.072;2023-06-24T02:43:58;17.50;99.90
5011;DHT22;2524;54.364;10.072;2023-06-24T02:46:24;17.50;99.90
5011;DHT22;2524;54.364;10.072;2023-06-24T02:48:51;17.30;99.90
5011;DHT22;2524;54.364;10.072;2023-06-24T02:51:17;17.30;99.90
5011;DHT22;2524;54.364;10.072;2023-06-24T02:53:43;17.30;99.90
5011;DHT22;2524;54.364;10.072;2023-06-24T02:56:12;17.30;99.90
5011;DHT22;2524;54.364;10.072;2023-06-24T02:58:39;17.30;99.90
5011;DHT22;2524;54.364;10.072;2023-06-24T03:01:05;17.30;99.90
5011;DHT22;2524;54.364;10.072;2023-06-24T03:03:34;17.30;99.90
5011;DHT22;2524;54.364;10.072;2023-06-24T03:06:00;17.30;99.90
5011;DHT22;2524;54.364;10.072;2023-06-24T03:08:28;17.10;99.90
5011;DHT22;2524;54.364;10.072;2023-06-24T03:10:57;17.20;99.90
5011;DHT22;2524;54.364;10.072;2023-06-24T03:13:23;17.20;99.90
5011;DHT22;2524;54.364;10.072;2023-06-24T03:15:49;17.10;99.90
5011;DHT22;2524;54.364;10.072;2023-06-24T03:18:16;17.00;99.90
5011;DHT22;2524;54.364;10.072;2023-06-24T03:20:42;17.00;99.90
5011;DHT22;2524;54.364;10.072;2023-06-24T03:23:08;17.00;99.90
5011;DHT22;2524;54.364;10.072;2023-06-24T03:25:34;16.90;99.90
5011;DHT22;2524;54.364;10.072;2023-06-24T03:28:00;16.80;99.90
5011;DHT22;2524;54.364;10.072;2023-06-24T03:30:26;16.90;99.90
5011;DHT22;2524;54.364;10.072;2023-06-24T03:32:52;16.80;99.90
5011;DHT22;2524;54.364;10.072;2023-06-24T03:35:18;16.70;99.90
5011;DHT22;2524;54.364;10.072;2023-06-24T03:37:43;16.80;99.90
5011;DHT22;2524;54.364;10.072;2023-06-24T03:40:09;16.60;99.90
5011;DHT22;2524;54.364;10.072;2023-06-24T03:42:35;16.60;99.90
5011;DHT22;2524;54.364;10.072;2023-06-24T03:45:02;16.80;99.90
5011;DHT22;2524;54.364;10.072;2023-06-24T03:47:28;16.60;99.90
5011;DHT22;2524;54.364;10.072;2023-06-24T03:49:54;16.70;99.90
5011;DHT22;2524;54.364;10.072;2023-06-24T03:52:19;16.70;99.90
5011;DHT22;2524;54.364;10.072;2023-06-24T03:54:45;16.70;99.90
5011;DHT22;2524;54.364;10.072;2023-06-24T03:57:12;16.80;99.90
5011;DHT22;2524;54.364;10.072;2023-06-24T03:59:37;16.90;99.90
5011;DHT22;2524;54.364;10.072;2023-06-24T04:02:04;16.80;99.90
5011;DHT22;2524;54.364;10.072;2023-06-24T04:04:36;16.90;99.90
5011;DHT22;2524;54.364;10.072;2023-06-24T04:07:02;16.80;99.90
5011;DHT22;2524;54.364;10.072;2023-06-24T04:09:29;16.80;99.90
5011;DHT22;2524;54.364;10.072;2023-06-24T04:11:55;17.00;99.90
5011;DHT22;2524;54.364;10.072;2023-06-24T04:14:20;16.80;99.90
5011;DHT22;2524;54.364;10.072;2023-06-24T04:16:46;16.90;99.90
5011;DHT22;2524;54.364;10.072;2023-06-24T04:19:11;17.00;99.90
5011;DHT22;2524;54.364;10.072;2023-06-24T04:21:37;16.90;99.90
5011;DHT22;2524;54.364;10.072;2023-06-24T04:24:03;16.90;99.90
5011;DHT22;2524;54.364;10.072;2023-06-24T04:26:31;17.00;99.90
5011;DHT22;2524;54.364;10.072;2023-06-24T04:28:56;17.00;99.90
5011;DHT22;2524;54.364;10.072;2023-06-24T04:31:22;17.00;99.90
5011;DHT22;2524;54.364;10.072;2023-06-24T04:33:47;17.00;99.90
5011;DHT22;2524;54.364;10.072;2023-06-24T04:36:13;17.10;99.90
5011;DHT22;2524;54.364;10.072;2023-06-24T04:38:38;17.10;99.90
5011;DHT22;2524;54.364;10.072;2023-06-24T04:41:04;17.20;99.90
5011;DHT22;2524;54.364;10.072;2023-06-24T04:43:29;17.10;99.90
5011;DHT22;2524;54.364;10.072;2023-06-24T04:45:55;17.10;99.90
5011;DHT22;2524;54.364;10.072;2023-06-24T04:48:23;17.10;99.90
5011;DHT22;2524;54.364;10.072;2023-06-24T04:50:49;17.10;99.90
5011;DHT22;2524;54.364;10.072;2023-06-24T04:53:15;17.20;99.90
5011;DHT22;2524;54.364;10.072;2023-06-24T04:55:40;17.20;99.90
5011;DHT22;2524;54.364;10.072;2023-06-24T04:58:06;17.20;99.90
5011;DHT22;2524;54.364;10.072;2023-06-24T05:00:32;17.20;99.90
5011;DHT22;2524;54.364;10.072;2023-06-24T05:02:57;17.20;99.90
5011;DHT22;2524;54.364;10.072;2023-06-24T05:05:23;17.30;99.90
5011;DHT22;2524;54.364;10.072;2023-06-24T05:07:49;17.20;99.90
5011;DHT22;2524;54.364;10.072;2023-06-24T05:10:14;17.30;99.90
5011;DHT22;2524;54.364;10.072;2023-06-24T05:12:40;17.20;99.90
5011;DHT22;2524;54.364;10.072;2023-06-24T05:15:06;17.20;99.90
5011;DHT22;2524;54.364;10.072;2023-06-24T05:17:32;17.30;99.90
5011;DHT22;2524;54.364;10.072;2023-06-24T05:19:58;17.30;99.90
5011;DHT22;2524;54.364;10.072;2023-06-24T05:22:24;17.30;99.90
5011;DHT22;2524;54.364;10.072;2023-06-24T05:24:51;17.30;99.90
5011;DHT22;2524;54.364;10.072;2023-06-24T05:27:16;17.30;99.90
5011;DHT22;2524;54.364;10.072;2023-06-24T05:29:43;17.30;99.90
5011;DHT22;2524;54.364;10.072;2023-06-24T05:32:08;17.50;99.90
5011;DHT22;2524;54.364;10.072;2023-06-24T05:34:34;17.40;99.90
5011;DHT22;2524;54.364;10.072;2023-06-24T05:37:00;17.40;99.90
5011;DHT22;2524;54.364;10.072;2023-06-24T05:39:25;17.50;99.90
5011;DHT22;2524;54.364;10.072;2023-06-24T05:41:51;17.50;99.90
5011;DHT22;2524;54.364;10.072;2023-06-24T05:44:17;17.50;99.90
5011;DHT22;2524;54.364;10.072;2023-06-24T05:46:44;17.60;99.90
5011;DHT22;2524;54.364;10.072;2023-06-24T05:49:09;17.50;99.90
5011;DHT22;2524;54.364;10.072;2023-06-24T05:51:35;17.60;99.90
5011;DHT22;2524;54.364;10.072;2023-06-24T05:54:01;17.60;99.90
5011;DHT22;2524;54.364;10.072;2023-06-24T05:56:26;17.60;99.90
5011;DHT22;2524;54.364;10.072;2023-06-24T05:58:52;17.60;99.90
5011;DHT22;2524;54.364;10.072;2023-06-24T06:01:17;17.60;99.90
5011;DHT22;2524;54.364;10.072;2023-06-24T06:03:43;17.60;99.90
5011;DHT22;2524;54.364;10.072;2023-06-24T06:06:08;17.60;99.90
5011;DHT22;2524;54.364;10.072;2023-06-24T06:08:34;17.50;99.90
5011;DHT22;2524;54.364;10.072;2023-06-24T06:11:00;17.50;99.90
5011;DHT22;2524;54.364;10.072;2023-06-24T06:13:29;17.60;99.90
5011;DHT22;2524;54.364;10.072;2023-06-24T06:15:56;17.70;99.90
5011;DHT22;2524;54.364;10.072;2023-06-24T06:18:22;17.50;99.90
5011;DHT22;2524;54.364;10.072;2023-06-24T06:20:47;17.60;99.90
5011;DHT22;2524;54.364;10.072;2023-06-24T06:23:13;17.60;99.90
5011;DHT22;2524;54.364;10.072;2023-06-24T06:25:38;17.60;99.90
5011;DHT22;2524;54.364;10.072;2023-06-24T06:28:04;17.70;99.90
5011;DHT22;2524;54.364;10.072;2023-06-24T06:30:30;17.80;99.90
5011;DHT22;2524;54.364;10.072;2023-06-24T06:32:56;17.80;99.90
5011;DHT22;2524;54.364;10.072;2023-06-24T06:35:21;17.80;99.90
5011;DHT22;2524;54.364;10.072;2023-06-24T06:37:47;17.80;99.90
5011;DHT22;2524;54.364;10.072;2023-06-24T06:40:19;17.90;99.90
5011;DHT22;2524;54.364;10.072;2023-06-24T06:42:44;17.90;99.90
5011;DHT22;2524;54.364;10.072;2023-06-24T06:45:10;18.00;99.90
5011;DHT22;2524;54.364;10.072;2023-06-24T06:47:36;18.00;99.90
5011;DHT22;2524;54.364;10.072;2023-06-24T06:50:01;18.00;99.90
5011;DHT22;2524;54.364;10.072;2023-06-24T06:52:27;18.10;99.90
5011;DHT22;2524;54.364;10.072;2023-06-24T06:54:54;18.20;99.90
5011;DHT22;2524;54.364;10.072;2023-06-24T06:57:19;18.20;99.90
5011;DHT22;2524;54.364;10.072;2023-06-24T06:59:45;18.20;99.90
5011;DHT22;2524;54.364;10.072;2023-06-24T07:02:10;18.30;99.90
5011;DHT22;2524;54.364;10.072;2023-06-24T07:04:36;18.50;99.90
5011;DHT22;2524;54.364;10.072;2023-06-24T07:07:01;18.40;99.90
5011;DHT22;2524;54.364;10.072;2023-06-24T07:09:27;18.50;99.90
5011;DHT22;2524;54.364;10.072;2023-06-24T07:11:53;18.60;99.90
5011;DHT22;2524;54.364;10.072;2023-06-24T07:14:19;18.60;99.90
5011;DHT22;2524;54.364;10.072;2023-06-24T07:16:44;18.60;99.90
5011;DHT22;2524;54.364;10.072;2023-06-24T07:19:10;18.60;99.90
5011;DHT22;2524;54.364;10.072;2023-06-24T07:21:35;18.70;99.90
5011;DHT22;2524;54.364;10.072;2023-06-24T07:24:01;18.70;99.90
5011;DHT22;2524;54.364;10.072;2023-06-24T07:26:26;18.90;99.90
5011;DHT22;2524;54.364;10.072;2023-06-24T07:28:56;18.90;99.90
5011;DHT22;2524;54.364;10.072;2023-06-24T07:31:21;18.90;99.90
5011;DHT22;2524;54.364;10.072;2023-06-24T07:33:47;19.10;99.90
5011;DHT22;2524;54.364;10.072;2023-06-24T07:36:12;19.10;99.90
5011;DHT22;2524;54.364;10.072;2023-06-24T07:38:39;19.10;99.90
5011;DHT22;2524;54.364;10.072;2023-06-24T07:41:04;19.10;99.90
5011;DHT22;2524;54.364;10.072;2023-06-24T07:43:30;19.20;99.90
5011;DHT22;2524;54.364;10.072;2023-06-24T07:45:55;19.10;99.90
5011;DHT22;2524;54.364;10.072;2023-06-24T07:48:21;19.10;99.90
5011;DHT22;2524;54.364;10.072;2023-06-24T07:50:46;19.20;99.90
5011;DHT22;2524;54.364;10.072;2023-06-24T07:53:12;19.30;99.90
5011;DHT22;2524;54.364;10.072;2023-06-24T07:55:38;19.30;99.90
5011;DHT22;2524;54.364;10.072;2023-06-24T07:58:04;19.30;99.90
5011;DHT22;2524;54.364;10.072;2023-06-24T08:00:30;19.30;99.90
5011;DHT22;2524;54.364;10.072;2023-06-24T08:02:57;19.30;99.90
5011;DHT22;2524;54.364;10.072;2023-06-24T08:05:23;19.40;99.90
5011;DHT22;2524;54.364;10.072;2023-06-24T08:07:50;19.50;99.90
5011;DHT22;2524;54.364;10.072;2023-06-24T08:10:16;19.60;99.90
5011;DHT22;2524;54.364;10.072;2023-06-24T08:12:42;19.60;99.90
5011;DHT22;2524;54.364;10.072;2023-06-24T08:15:07;19.70;99.90
5011;DHT22;2524;54.364;10.072;2023-06-24T08:17:33;19.50;99.90
5011;DHT22;2524;54.364;10.072;2023-06-24T08:19:59;19.70;99.90
5011;DHT22;2524;54.364;10.072;2023-06-24T08:22:24;19.60;99.90
5011;DHT22;2524;54.364;10.072;2023-06-24T08:24:50;19.60;99.90
5011;DHT22;2524;54.364;10.072;2023-06-24T08:27:16;19.70;99.90
5011;DHT22;2524;54.364;10.072;2023-06-24T08:29:41;19.60;99.90
5011;DHT22;2524;54.364;10.072;2023-06-24T08:32:07;19.60;99.90
5011;DHT22;2524;54.364;10.072;2023-06-24T08:34:33;19.60;99.90
5011;DHT22;2524;54.364;10.072;2023-06-24T08:36:59;19.70;99.90
5011;DHT22;2524;54.364;10.072;2023-06-24T08:39:24;19.80;99.90
5011;DHT22;2524;54.364;10.072;2023-06-24T08:41:50;19.90;99.90
5011;DHT22;2524;54.364;10.072;2023-06-24T08:44:16;19.90;99.90
5011;DHT22;2524;54.364;10.072;2023-06-24T08:46:41;19.90;99.90
5011;DHT22;2524;54.364;10.072;2023-06-24T08:49:28;20.10;99.90
5011;DHT22;2524;54.364;10.072;2023-06-24T08:54:34;20.20;99.90
5011;DHT22;2524;54.364;10.072;2023-06-24T08:57:01;20.40;99.90
5011;DHT22;2524;54.364;10.072;2023-06-24T08:59:27;20.40;99.90
5011;DHT22;2524;54.364;10.072;2023-06-24T09:01:53;20.50;99.90
5011;DHT22;2524;54.364;10.072;2023-06-24T09:04:18;20.50;99.90
5011;DHT22;2524;54.364;10.072;2023-06-24T09:06:44;20.70;99.90
5011;DHT22;2524;54.364;10.072;2023-06-24T09:09:22;20.70;99.90
5011;DHT22;2524;54.364;10.072;2023-06-24T09:11:58;20.80;99.90
5011;DHT22;2524;54.364;10.072;2023-06-24T09:14:25;20.90;99.90
5011;DHT22;2524;54.364;10.072;2023-06-24T09:16:58;21.00;99.90
5011;DHT22;2524;54.364;10.072;2023-06-24T09:19:25;21.10;99.90
5011;DHT22;2524;54.364;10.072;2023-06-24T09:21:53;21.20;99.90
5011;DHT22;2524;54.364;10.072;2023-06-24T09:24:19;21.40;99.90
5011;DHT22;2524;54.364;10.072;2023-06-24T09:26:44;21.40;99.90
5011;DHT22;2524;54.364;10.072;2023-06-24T09:29:14;21.50;99.90
5011;DHT22;2524;54.364;10.072;2023-06-24T09:31:49;21.50;99.90
5011;DHT22;2524;54.364;10.072;2023-06-24T09:34:19;21.60;99.90
5011;DHT22;2524;54.364;10.072;2023-06-24T09:36:52;21.70;99.90
5011;DHT22;2524;54.364;10.072;2023-06-24T09:39:19;21.80;99.90
5011;DHT22;2524;54.364;10.072;2023-06-24T09:41:49;21.90;99.90
5011;DHT22;2524;54.364;10.072;2023-06-24T09:44:17;21.90;99.90
5011;DHT22;2524;54.364;10.072;2023-06-24T09:46:46;22.00;99.90
5011;DHT22;2524;54.364;10.072;2023-06-24T09:49:12;22.00;99.90
5011;DHT22;2524;54.364;10.072;2023-06-24T09:51:40;22.10;99.90
5011;DHT22;2524;54.364;10.072;2023-06-24T09:54:08;22.20;99.90
5011;DHT22;2524;54.364;10.072;2023-06-24T09:56:40;22.30;99.90
5011;DHT22;2524;54.364;10.072;2023-06-24T09:59:07;22.40;99.90
5011;DHT22;2524;54.364;10.072;2023-06-24T10:01:36;22.50;99.90
5011;DHT22;2524;54.364;10.072;2023-06-24T10:04:04;22.50;99.90
5011;DHT22;2524;54.364;10.072;2023-06-24T10:06:31;22.50;99.90
5011;DHT22;2524;54.364;10.072;2023-06-24T10:08:58;22.40;99.50
5011;DHT22;2524;54.364;10.072;2023-06-24T10:11:24;22.30;99.40
5011;DHT22;2524;54.364;10.072;2023-06-24T10:13:49;22.30;99.20
5011;DHT22;2524;54.364;10.072;2023-06-24T10:16:15;22.20;99.00
5011;DHT22;2524;54.364;10.072;2023-06-24T10:18:44;22.10;99.00
5011;DHT22;2524;54.364;10.072;2023-06-24T10:21:10;22.10;98.80
5011;DHT22;2524;54.364;10.072;2023-06-24T10:26:28;22.20;99.20
5011;DHT22;2524;54.364;10.072;2023-06-24T10:36:55;22.50;98.30
5011;DHT22;2524;54.364;10.072;2023-06-24T10:42:40;22.50;98.30
5011;DHT22;2524;54.364;10.072;2023-06-24T10:45:13;22.60;98.50
5011;DHT22;2524;54.364;10.072;2023-06-24T10:47:44;22.70;98.50
5011;DHT22;2524;54.364;10.072;2023-06-24T10:50:12;22.80;98.30
5011;DHT22;2524;54.364;10.072;2023-06-24T10:52:43;22.90;98.30
5011;DHT22;2524;54.364;10.072;2023-06-24T10:55:09;22.90;98.10
5011;DHT22;2524;54.364;10.072;2023-06-24T10:57:36;23.00;98.10
5011;DHT22;2524;54.364;10.072;2023-06-24T11:00:03;23.00;97.90
5011;DHT22;2524;54.364;10.072;2023-06-24T11:02:29;23.00;97.90
5011;DHT22;2524;54.364;10.072;2023-06-24T11:04:56;23.10;97.60
5011;DHT22;2524;54.364;10.072;2023-06-24T11:07:27;23.10;97.70
5011;DHT22;2524;54.364;10.072;2023-06-24T11:09:55;23.20;96.90
5011;DHT22;2524;54.364;10.072;2023-06-24T11:12:25;23.20;97.10
5011;DHT22;2524;54.364;10.072;2023-06-24T11:14:54;23.30;97.00
5011;DHT22;2524;54.364;10.072;2023-06-24T11:17:20;23.30;96.80
5011;DHT22;2524;54.364;10.072;2023-06-24T11:19:46;23.30;96.60
5011;DHT22;2524;54.364;10.072;2023-06-24T11:22:12;23.40;96.80
5011;DHT22;2524;54.364;10.072;2023-06-24T11:24:37;23.30;96.80
5011;DHT22;2524;54.364;10.072;2023-06-24T11:27:05;23.50;96.90
5011;DHT22;2524;54.364;10.072;2023-06-24T11:29:32;23.50;96.60
5011;DHT22;2524;54.364;10.072;2023-06-24T11:31:58;23.60;97.10
5011;DHT22;2524;54.364;10.072;2023-06-24T11:36:50;23.90;96.60
5011;DHT22;2524;54.364;10.072;2023-06-24T11:39:26;24.00;96.80
5011;DHT22;2524;54.364;10.072;2023-06-24T11:41:53;24.20;96.60
5011;DHT22;2524;54.364;10.072;2023-06-24T11:44:23;24.20;96.00
5011;DHT22;2524;54.364;10.072;2023-06-24T11:46:49;24.30;95.90
5011;DHT22;2524;54.364;10.072;2023-06-24T11:49:15;24.20;95.60
5011;DHT22;2524;54.364;10.072;2023-06-24T11:51:48;24.20;96.10
5011;DHT22;2524;54.364;10.072;2023-06-24T11:54:17;24.40;95.90
5011;DHT22;2524;54.364;10.072;2023-06-24T11:56:50;24.40;95.60
5011;DHT22;2524;54.364;10.072;2023-06-24T12:01:52;24.50;95.20
5011;DHT22;2524;54.364;10.072;2023-06-24T12:04:17;24.50;94.80
5011;DHT22;2524;54.364;10.072;2023-06-24T12:06:44;24.60;94.80
5011;DHT22;2524;54.364;10.072;2023-06-24T12:09:10;24.70;94.80
5011;DHT22;2524;54.364;10.072;2023-06-24T12:11:36;24.80;94.80
5011;DHT22;2524;54.364;10.072;2023-06-24T12:14:01;24.90;94.30
5011;DHT22;2524;54.364;10.072;2023-06-24T12:16:27;25.00;94.10
5011;DHT22;2524;54.364;10.072;2023-06-24T12:18:54;25.20;94.00
5011;DHT22;2524;54.364;10.072;2023-06-24T12:21:19;25.30;93.10
5011;DHT22;2524;54.364;10.072;2023-06-24T12:23:45;25.40;93.10
5011;DHT22;2524;54.364;10.072;2023-06-24T12:26:11;25.40;90.70
5011;DHT22;2524;54.364;10.072;2023-06-24T12:28:37;25.40;91.80
5011;DHT22;2524;54.364;10.072;2023-06-24T12:31:03;25.50;90.80
5011;DHT22;2524;54.364;10.072;2023-06-24T12:33:29;25.50;90.90
5011;DHT22;2524;54.364;10.072;2023-06-24T12:35:55;25.50;90.10
5011;DHT22;2524;54.364;10.072;2023-06-24T12:38:20;25.40;90.00
5011;DHT22;2524;54.364;10.072;2023-06-24T12:40:46;25.40;89.70
5011;DHT22;2524;54.364;10.072;2023-06-24T12:43:13;25.40;89.60
5011;DHT22;2524;54.364;10.072;2023-06-24T12:45:40;25.40;89.70
5011;DHT22;2524;54.364;10.072;2023-06-24T12:48:09;25.50;90.10
5011;DHT22;2524;54.364;10.072;2023-06-24T12:50:34;25.60;90.20
5011;DHT22;2524;54.364;10.072;2023-06-24T12:53:00;25.70;90.00
5011;DHT22;2524;54.364;10.072;2023-06-24T12:55:25;25.70;89.60
5011;DHT22;2524;54.364;10.072;2023-06-24T12:57:51;25.80;89.30
5011;DHT22;2524;54.364;10.072;2023-06-24T13:00:19;25.90;89.00
5011;DHT22;2524;54.364;10.072;2023-06-24T13:02:46;25.90;88.00
5011;DHT22;2524;54.364;10.072;2023-06-24T13:05:11;25.90;87.60
5011;DHT22;2524;54.364;10.072;2023-06-24T13:07:37;26.00;87.20
5011;DHT22;2524;54.364;10.072;2023-06-24T13:10:02;25.90;86.80
5011;DHT22;2524;54.364;10.072;2023-06-24T13:12:34;25.80;85.70
5011;DHT22;2524;54.364;10.072;2023-06-24T13:14:59;25.80;86.50
5011;DHT22;2524;54.364;10.072;2023-06-24T13:17:25;25.80;87.20
5011;DHT22;2524;54.364;10.072;2023-06-24T13:19:51;25.90;87.20
5011;DHT22;2524;54.364;10.072;2023-06-24T13:22:17;26.00;87.00
5011;DHT22;2524;54.364;10.072;2023-06-24T13:24:42;26.20;86.70
5011;DHT22;2524;54.364;10.072;2023-06-24T13:27:08;26.20;86.30
5011;DHT22;2524;54.364;10.072;2023-06-24T13:29:34;26.30;85.90
5011;DHT22;2524;54.364;10.072;2023-06-24T13:31:59;26.30;85.70
5011;DHT22;2524;54.364;10.072;2023-06-24T13:34:25;26.50;84.50
5011;DHT22;2524;54.364;10.072;2023-06-24T13:36:50;26.50;84.30
5011;DHT22;2524;54.364;10.072;2023-06-24T13:39:16;26.50;83.80
5011;DHT22;2524;54.364;10.072;2023-06-24T13:41:47;26.50;83.30
5011;DHT22;2524;54.364;10.072;2023-06-24T13:44:13;26.50;82.10
5011;DHT22;2524;54.364;10.072;2023-06-24T13:46:38;26.40;81.20
5011;DHT22;2524;54.364;10.072;2023-06-24T13:49:04;26.30;79.70
5011;DHT22;2524;54.364;10.072;2023-06-24T13:51:30;26.20;79.80
5011;DHT22;2524;54.364;10.072;2023-06-24T13:53:56;26.10;79.10
5011;DHT22;2524;54.364;10.072;2023-06-24T13:56:23;26.00;78.70
5011;DHT22;2524;54.364;10.072;2023-06-24T13:58:50;25.90;78.10
5011;DHT22;2524;54.364;10.072;2023-06-24T14:01:16;25.70;78.10
5011;DHT22;2524;54.364;10.072;2023-06-24T14:03:42;25.70;78.60
5011;DHT22;2524;54.364;10.072;2023-06-24T14:06:08;25.60;78.90
5011;DHT22;2524;54.364;10.072;2023-06-24T14:08:35;25.70;79.30
5011;DHT22;2524;54.364;10.072;2023-06-24T14:11:01;25.60;78.80
5011;DHT22;2524;54.364;10.072;2023-06-24T14:13:28;25.60;79.10
5011;DHT22;2524;54.364;10.072;2023-06-24T14:15:57;25.60;78.60
5011;DHT22;2524;54.364;10.072;2023-06-24T14:18:23;25.60;78.80
5011;DHT22;2524;54.364;10.072;2023-06-24T14:20:48;25.60;78.90
5011;DHT22;2524;54.364;10.072;2023-06-24T14:23:14;25.70;79.10
5011;DHT22;2524;54.364;10.072;2023-06-24T14:25:40;25.80;79.50
5011;DHT22;2524;54.364;10.072;2023-06-24T14:28:06;25.80;79.30
5011;DHT22;2524;54.364;10.072;2023-06-24T14:30:32;25.90;79.40
5011;DHT22;2524;54.364;10.072;2023-06-24T14:32:57;26.00;79.20
5011;DHT22;2524;54.364;10.072;2023-06-24T14:35:23;26.10;78.70
5011;DHT22;2524;54.364;10.072;2023-06-24T14:37:49;26.10;77.30
5011;DHT22;2524;54.364;10.072;2023-06-24T14:40:14;26.20;75.60
5011;DHT22;2524;54.364;10.072;2023-06-24T14:42:40;26.20;75.20
5011;DHT22;2524;54.364;10.072;2023-06-24T14:45:08;26.10;75.50
5011;DHT22;2524;54.364;10.072;2023-06-24T14:47:33;26.20;75.40
5011;DHT22;2524;54.364;10.072;2023-06-24T14:49:59;26.20;75.60
5011;DHT22;2524;54.364;10.072;2023-06-24T14:52:25;26.30;75.50
5011;DHT22;2524;54.364;10.072;2023-06-24T14:54:50;26.30;75.10
5011;DHT22;2524;54.364;10.072;2023-06-24T14:57:16;26.30;74.50
5011;DHT22;2524;54.364;10.072;2023-06-24T14:59:42;26.20;74.30
5011;DHT22;2524;54.364;10.072;2023-06-24T15:02:07;26.10;74.20
5011;DHT22;2524;54.364;10.072;2023-06-24T15:04:35;26.10;74.30
5011;DHT22;2524;54.364;10.072;2023-06-24T15:07:01;26.00;74.10
5011;DHT22;2524;54.364;10.072;2023-06-24T15:09:27;26.00;73.70
5011;DHT22;2524;54.364;10.072;2023-06-24T15:11:53;25.90;73.70
5011;DHT22;2524;54.364;10.072;2023-06-24T15:14:19;25.90;73.70
5011;DHT22;2524;54.364;10.072;2023-06-24T15:16:45;25.80;73.50
5011;DHT22;2524;54.364;10.072;2023-06-24T15:19:11;25.80;73.30
5011;DHT22;2524;54.364;10.072;2023-06-24T15:21:37;25.70;73.40
5011;DHT22;2524;54.364;10.072;2023-06-24T15:24:03;25.80;74.00
5011;DHT22;2524;54.364;10.072;2023-06-24T15:26:29;25.70;74.00
5011;DHT22;2524;54.364;10.072;2023-06-24T15:28:55;25.70;74.30
5011;DHT22;2524;54.364;10.072;2023-06-24T15:31:21;25.60;74.60
5011;DHT22;2524;54.364;10.072;2023-06-24T15:33:47;25.60;74.70
5011;DHT22;2524;54.364;10.072;2023-06-24T15:36:18;25.50;75.00
5011;DHT22;2524;54.364;10.072;2023-06-24T15:38:46;25.50;75.80
5011;DHT22;2524;54.364;10.072;2023-06-24T15:41:12;25.40;75.30
5011;DHT22;2524;54.364;10.072;2023-06-24T15:43:39;25.50;75.80
5011;DHT22;2524;54.364;10.072;2023-06-24T15:46:05;25.40;76.10
5011;DHT22;2524;54.364;10.072;2023-06-24T15:48:31;25.40;76.10
5011;DHT22;2524;54.364;10.072;2023-06-24T15:50:57;25.40;76.40
5011;DHT22;2524;54.364;10.072;2023-06-24T15:53:25;25.40;76.50
5011;DHT22;2524;54.364;10.072;2023-06-24T15:55:51;25.40;77.30
5011;DHT22;2524;54.364;10.072;2023-06-24T15:58:16;25.50;77.30
5011;DHT22;2524;54.364;10.072;2023-06-24T16:00:43;25.50;77.40
5011;DHT22;2524;54.364;10.072;2023-06-24T16:03:08;25.50;77.80
5011;DHT22;2524;54.364;10.072;2023-06-24T16:05:34;25.60;77.90
5011;DHT22;2524;54.364;10.072;2023-06-24T16:07:59;25.50;78.00
5011;DHT22;2524;54.364;10.072;2023-06-24T16:10:25;25.50;78.00